createdAt,value
2019-01-13T00:01:56.415Z,3.45
2019-01-13T00:05:03.247Z,2.58
2019-01-13T00:08:10.174Z,2.30
2019-01-13T00:11:17.106Z,2.17
2019-01-13T00:14:23.106Z,2.00
2019-01-13T00:17:30.075Z,1.98
2019-01-13T00:20:35.985Z,2.42
2019-01-13T00:23:42.596Z,1.95
2019-01-13T00:26:48.462Z,1.98
2019-01-13T00:29:54.270Z,1.98
2019-01-13T00:33:00.143Z,1.80
2019-01-13T00:36:06.089Z,2.27
2019-01-13T00:39:11.871Z,2.50
2019-01-13T00:42:17.834Z,3.00
2019-01-13T00:45:23.790Z,2.40
2019-01-13T00:48:29.574Z,2.00
2019-01-13T00:51:35.254Z,2.20
2019-01-13T00:54:41.182Z,2.42
2019-01-13T00:57:46.991Z,1.90
2019-01-13T01:00:52.712Z,1.90
2019-01-13T01:03:58.445Z,1.45
2019-01-13T01:07:04.482Z,1.65
2019-01-13T01:10:12.602Z,1.22
2019-01-13T01:13:20.230Z,1.70
2019-01-13T01:16:26.054Z,1.00
2019-01-13T01:19:31.937Z,0.70
2019-01-13T01:22:37.663Z,0.60
2019-01-13T01:25:43.238Z,0.80
2019-01-13T01:28:49.010Z,0.53
2019-01-13T01:31:54.650Z,0.60
2019-01-13T01:35:00.390Z,0.40
2019-01-13T01:38:06.515Z,0.53
2019-01-13T01:41:12.331Z,0.50
2019-01-13T01:44:17.947Z,0.40
2019-01-13T01:47:23.742Z,0.30
2019-01-13T01:50:29.383Z,0.40
2019-01-13T01:53:35.107Z,0.50
2019-01-13T01:56:40.801Z,0.70
2019-01-13T01:59:46.466Z,0.93
2019-01-13T02:02:52.313Z,1.25
2019-01-13T02:05:58.035Z,1.23
2019-01-13T02:09:06.330Z,1.15
2019-01-13T02:12:13.578Z,1.10
2019-01-13T02:15:25.202Z,1.10
2019-01-13T02:18:30.898Z,1.20
2019-01-13T02:21:36.572Z,1.20
2019-01-13T02:24:42.222Z,0.98
2019-01-13T02:27:48.050Z,1.53
2019-01-13T02:30:53.706Z,1.20
2019-01-13T02:33:59.385Z,1.00
2019-01-13T02:37:06.738Z,0.77
2019-01-13T02:40:14.347Z,1.02
2019-01-13T02:43:20.002Z,0.88
2019-01-13T02:46:25.684Z,0.82
2019-01-13T02:49:31.355Z,1.05
2019-01-13T02:52:36.983Z,1.12
2019-01-13T02:55:42.642Z,1.00
2019-01-13T02:58:48.291Z,0.60
2019-01-13T03:01:54.057Z,0.75
2019-01-13T03:04:59.698Z,0.60
2019-01-13T03:08:05.631Z,1.00
2019-01-13T03:11:11.311Z,1.00
2019-01-13T03:14:16.966Z,0.70
2019-01-13T03:17:22.621Z,0.50
2019-01-13T03:20:28.278Z,0.70
2019-01-13T03:23:33.903Z,0.53
2019-01-13T03:26:39.583Z,0.62
2019-01-13T03:29:46.226Z,0.88
2019-01-13T03:32:52.015Z,0.80
2019-01-13T03:36:00.118Z,0.65
2019-01-13T03:39:08.619Z,0.70
2019-01-13T03:42:14.263Z,0.40
2019-01-13T03:45:20.051Z,0.42
2019-01-13T03:48:26.691Z,0.70
2019-01-13T03:51:32.385Z,0.60
2019-01-13T03:54:39.730Z,0.50
2019-01-13T03:57:45.394Z,0.60
2019-01-13T04:00:51.075Z,0.50
2019-01-13T04:03:56.734Z,0.50
2019-01-13T04:07:02.378Z,0.78
2019-01-13T04:10:08.852Z,0.65
2019-01-13T04:13:14.509Z,0.50
2019-01-13T04:16:20.644Z,0.60
2019-01-13T04:19:26.303Z,0.50
2019-01-13T04:22:31.976Z,0.60
2019-01-13T04:25:37.758Z,0.57
2019-01-13T04:28:43.384Z,0.30
2019-01-13T04:31:49.038Z,0.47
2019-01-13T04:34:54.663Z,0.50
2019-01-13T04:38:00.378Z,0.50
2019-01-13T04:41:05.966Z,0.50
2019-01-13T04:44:11.666Z,0.57
2019-01-13T04:47:17.294Z,0.62
2019-01-13T04:50:22.995Z,0.55
2019-01-13T04:53:28.574Z,0.60
2019-01-13T04:56:34.370Z,0.60
2019-01-13T04:59:40.010Z,0.50
2019-01-13T05:02:45.854Z,0.70
2019-01-13T05:05:51.520Z,0.47
2019-01-13T05:08:57.202Z,0.45
2019-01-13T05:12:02.826Z,0.30
2019-01-13T05:15:08.831Z,0.45
2019-01-13T05:18:15.442Z,0.40
2019-01-13T05:21:21.154Z,0.40
2019-01-13T05:24:26.764Z,0.37
2019-01-13T05:27:33.566Z,0.50
2019-01-13T05:30:39.198Z,0.40
2019-01-13T05:33:44.899Z,0.50
2019-01-13T05:36:50.484Z,0.50
2019-01-13T05:39:56.198Z,0.50
2019-01-13T05:43:01.811Z,0.40
2019-01-13T05:46:07.469Z,0.70
2019-01-13T05:49:13.115Z,0.50
2019-01-13T05:52:18.739Z,0.50
2019-01-13T05:55:24.802Z,0.43
2019-01-13T05:58:30.453Z,0.50
2019-01-13T06:01:36.135Z,0.67
2019-01-13T06:04:41.793Z,0.50
2019-01-13T06:07:47.438Z,0.60
2019-01-13T06:10:53.099Z,0.40
2019-01-13T06:13:58.747Z,0.40
2019-01-13T06:17:04.403Z,0.45
2019-01-13T06:20:12.923Z,0.47
2019-01-13T06:23:18.545Z,0.47
2019-01-13T06:26:24.227Z,0.50
2019-01-13T06:29:29.878Z,0.40
2019-01-13T06:32:35.532Z,0.47
2019-01-13T06:35:41.162Z,0.60
2019-01-13T06:38:46.806Z,0.40
2019-01-13T06:41:52.694Z,0.80
2019-01-13T06:44:58.447Z,0.50
2019-01-13T06:48:04.080Z,0.50
2019-01-13T06:51:09.750Z,0.93
2019-01-13T06:54:15.490Z,0.40
2019-01-13T06:57:21.350Z,0.70
2019-01-13T07:00:31.890Z,0.50
2019-01-13T07:03:37.587Z,0.60
2019-01-13T07:06:43.246Z,0.50
2019-01-13T07:09:48.891Z,0.60
2019-01-13T07:12:54.520Z,0.40
2019-01-13T07:16:00.286Z,0.50
2019-01-13T07:19:05.971Z,0.60
2019-01-13T07:22:11.609Z,0.42
2019-01-13T07:25:17.258Z,0.80
2019-01-13T07:28:22.910Z,0.47
2019-01-13T07:31:28.675Z,0.42
2019-01-13T07:34:34.294Z,0.45
2019-01-13T07:37:39.974Z,0.50
2019-01-13T07:40:45.627Z,0.42
2019-01-13T07:43:51.268Z,0.40
2019-01-13T07:46:56.902Z,0.37
2019-01-13T07:50:02.766Z,0.50
2019-01-13T07:53:08.448Z,0.50
2019-01-13T07:56:14.095Z,0.50
2019-01-13T07:59:19.724Z,0.50
2019-01-13T08:02:27.183Z,0.57
2019-01-13T08:05:32.790Z,0.57
2019-01-13T08:08:38.433Z,0.70
2019-01-13T08:11:44.080Z,0.55
2019-01-13T08:14:50.016Z,0.60
2019-01-13T08:17:55.738Z,0.60
2019-01-13T08:21:01.346Z,0.80
2019-01-13T08:24:07.040Z,0.80
2019-01-13T08:27:12.626Z,0.75
2019-01-13T08:30:19.778Z,0.57
2019-01-13T08:33:25.386Z,0.55
2019-01-13T08:36:31.177Z,0.42
2019-01-13T08:39:36.774Z,0.70
2019-01-13T08:42:42.483Z,0.50
2019-01-13T08:45:50.417Z,0.50
2019-01-13T08:48:55.614Z,0.53
2019-01-13T08:52:01.255Z,0.60
2019-01-13T08:55:07.727Z,0.60
2019-01-13T08:58:13.592Z,0.70
2019-01-13T09:01:19.547Z,0.85
2019-01-13T09:04:25.210Z,0.60
2019-01-13T09:07:30.964Z,0.50
2019-01-13T09:10:36.782Z,0.60
2019-01-13T09:13:42.897Z,0.53
2019-01-13T09:16:48.499Z,0.78
2019-01-13T09:19:54.221Z,0.70
2019-01-13T09:23:01.234Z,0.78
2019-01-13T09:26:06.890Z,0.80
2019-01-13T09:29:12.542Z,0.93
2019-01-13T09:32:18.222Z,0.57
2019-01-13T09:35:24.387Z,1.02
2019-01-13T09:38:30.040Z,0.75
2019-01-13T09:41:37.491Z,0.75
2019-01-13T09:44:43.186Z,0.70
2019-01-13T09:47:49.842Z,0.90
2019-01-13T09:50:55.829Z,0.80
2019-01-13T09:54:01.473Z,0.72
2019-01-13T09:57:07.130Z,0.80
2019-01-13T10:00:32.011Z,0.75
2019-01-13T10:03:37.684Z,1.00
2019-01-13T10:06:43.310Z,0.90
2019-01-13T10:09:48.962Z,0.82
2019-01-13T10:12:54.747Z,0.80
2019-01-13T10:16:00.401Z,0.50
2019-01-13T10:19:06.051Z,0.70
2019-01-13T10:22:11.674Z,0.60
2019-01-13T10:25:17.635Z,0.50
2019-01-13T10:28:23.297Z,0.68
2019-01-13T10:31:28.951Z,0.60
2019-01-13T10:34:34.723Z,0.60
2019-01-13T10:37:40.374Z,0.50
2019-01-13T10:40:46.030Z,0.40
2019-01-13T10:43:51.758Z,0.57
2019-01-13T10:46:57.410Z,0.53
2019-01-13T10:50:05.091Z,0.40
2019-01-13T10:53:10.790Z,0.50
2019-01-13T10:56:16.442Z,0.40
2019-01-13T10:59:22.200Z,0.40
2019-01-13T11:02:27.850Z,0.40
2019-01-13T11:05:33.484Z,0.50
2019-01-13T11:08:39.235Z,0.50
2019-01-13T11:11:44.886Z,0.40
2019-01-13T11:14:50.564Z,0.50
2019-01-13T11:17:56.424Z,0.40
2019-01-13T11:21:03.467Z,0.40
2019-01-13T11:24:09.034Z,0.40
2019-01-13T11:27:15.802Z,0.50
2019-01-13T11:30:22.615Z,0.60
2019-01-13T11:33:28.307Z,0.53
2019-01-13T11:36:34.038Z,0.40
2019-01-13T11:39:39.694Z,0.68
2019-01-13T11:42:45.415Z,0.50
2019-01-13T11:45:51.133Z,0.88
2019-01-13T11:48:56.841Z,0.70
2019-01-13T11:52:02.539Z,0.98
2019-01-13T11:55:09.858Z,0.93
2019-01-13T11:58:15.769Z,0.93
2019-01-13T12:01:21.890Z,0.85
2019-01-13T12:04:27.580Z,0.70
2019-01-13T12:07:33.190Z,0.80
2019-01-13T12:11:26.003Z,0.60
2019-01-13T12:14:04.286Z,0.70
2019-01-13T12:17:09.951Z,0.80
2019-01-13T12:20:17.834Z,0.80
2019-01-13T12:23:23.637Z,0.55
2019-01-13T12:26:29.356Z,0.80
2019-01-13T12:29:35.222Z,0.70
2019-01-13T12:32:40.859Z,0.50
2019-01-13T12:35:46.591Z,0.60
2019-01-13T12:38:52.270Z,0.40
2019-01-13T12:41:58.027Z,0.50
2019-01-13T12:45:03.785Z,0.50
2019-01-13T12:48:09.643Z,0.50
2019-01-13T12:51:15.379Z,0.57
2019-01-13T12:54:21.049Z,0.65
2019-01-13T12:57:26.703Z,0.50
2019-01-13T13:00:32.356Z,0.50
2019-01-13T13:03:38.007Z,0.60
2019-01-13T13:06:43.714Z,0.50
2019-01-13T13:09:49.545Z,0.57
2019-01-13T13:12:55.272Z,0.80
2019-01-13T13:16:01.137Z,0.40
2019-01-13T13:19:06.888Z,0.40
2019-01-13T13:22:12.651Z,0.42
2019-01-13T13:25:19.322Z,0.40
2019-01-13T13:28:25.166Z,0.40
2019-01-13T13:31:30.974Z,0.30
2019-01-13T13:34:36.663Z,0.40
2019-01-13T13:37:42.829Z,0.40
2019-01-13T13:40:48.498Z,0.47
2019-01-13T13:43:54.255Z,0.40
2019-01-13T13:46:59.908Z,0.60
2019-01-13T13:50:08.398Z,0.50
2019-01-13T13:53:15.078Z,0.40
2019-01-13T13:56:20.760Z,0.40
2019-01-13T13:59:26.436Z,0.50
2019-01-13T14:02:32.138Z,0.70
2019-01-13T14:05:38.301Z,0.80
2019-01-13T14:08:44.062Z,1.05
2019-01-13T14:11:49.734Z,0.95
2019-01-13T14:14:55.478Z,0.55
2019-01-13T14:18:02.235Z,0.55
2019-01-13T14:21:08.014Z,0.70
2019-01-13T14:24:13.700Z,0.50
2019-01-13T14:27:19.522Z,0.70
2019-01-13T14:30:26.503Z,0.60
2019-01-13T14:33:32.134Z,0.60
2019-01-13T14:36:37.814Z,0.62
2019-01-13T14:39:48.705Z,0.60
2019-01-13T14:42:51.878Z,0.50
2019-01-13T14:45:58.537Z,0.50
2019-01-13T14:49:04.310Z,0.60
2019-01-13T14:52:09.974Z,0.50
2019-01-13T14:55:16.279Z,0.50
2019-01-13T14:58:22.008Z,0.85
2019-01-13T15:01:27.643Z,0.70
2019-01-13T15:04:33.370Z,0.88
2019-01-13T15:07:39.130Z,0.78
2019-01-13T15:10:44.907Z,0.68
2019-01-13T15:13:51.715Z,0.60
2019-01-13T15:16:57.419Z,0.95
2019-01-13T15:20:03.230Z,0.60
2019-01-13T15:23:09.151Z,0.60
2019-01-13T15:26:15.165Z,0.60
2019-01-13T15:29:21.249Z,0.45
2019-01-13T15:32:27.339Z,0.60
2019-01-13T15:35:35.186Z,0.60
2019-01-13T15:38:41.831Z,0.70
2019-01-13T15:41:47.916Z,0.40
2019-01-13T15:44:53.866Z,0.35
2019-01-13T15:47:59.818Z,0.40
2019-01-13T15:51:05.910Z,0.62
2019-01-13T15:54:11.804Z,0.33
2019-01-13T15:57:17.850Z,0.50
2019-01-13T16:00:28.819Z,0.40
2019-01-13T16:03:34.578Z,0.50
2019-01-13T16:06:40.767Z,0.42
2019-01-13T16:09:47.694Z,0.62
2019-01-13T16:12:53.752Z,0.35
2019-01-13T16:15:59.602Z,0.60
2019-01-13T16:19:05.863Z,0.40
2019-01-13T16:22:11.747Z,0.40
2019-01-13T16:25:17.370Z,0.25
2019-01-13T16:28:23.058Z,0.50
2019-01-13T16:31:29.066Z,0.90
2019-01-13T16:34:35.076Z,0.70
2019-01-13T16:37:41.381Z,0.40
2019-01-13T16:41:06.779Z,0.60
2019-01-13T16:44:13.026Z,0.55
2019-01-13T16:47:20.655Z,0.50
2019-01-13T16:50:27.938Z,0.47
2019-01-13T16:53:33.908Z,0.42
2019-01-13T16:56:40.320Z,0.50
2019-01-13T16:59:46.682Z,0.33
2019-01-13T17:02:52.522Z,0.40
2019-01-13T17:06:07.742Z,0.30
2019-01-13T17:09:14.024Z,0.40
2019-01-13T17:12:19.964Z,0.30
2019-01-13T17:15:37.323Z,0.35
2019-01-13T17:18:51.634Z,0.50
2019-01-13T17:21:57.549Z,0.47
2019-01-13T17:25:03.682Z,0.30
2019-01-13T17:28:14.522Z,0.50
2019-01-13T17:31:21.202Z,0.40
2019-01-13T17:34:26.828Z,0.30
2019-01-13T17:37:32.510Z,0.47
2019-01-13T17:40:38.154Z,0.60
2019-01-13T17:43:43.787Z,0.50
2019-01-13T17:46:49.462Z,0.45
2019-01-13T17:49:55.118Z,3.22
2019-01-13T17:53:00.847Z,4.50
2019-01-13T17:56:06.506Z,4.70
2019-01-13T17:59:12.179Z,4.58
2019-01-13T18:02:19.406Z,4.05
2019-01-13T18:05:25.118Z,3.85
2019-01-13T18:08:30.775Z,4.30
2019-01-13T18:11:36.738Z,4.03
2019-01-13T18:14:44.110Z,3.62
2019-01-13T18:17:50.091Z,3.50
2019-01-13T18:20:56.743Z,3.52
2019-01-13T18:24:03.379Z,3.72
2019-01-13T18:27:09.456Z,3.15
2019-01-13T18:30:18.770Z,3.00
2019-01-13T18:33:25.382Z,2.77
2019-01-13T18:36:32.289Z,2.70
2019-01-13T18:39:39.289Z,2.75
2019-01-13T18:42:47.784Z,2.42
2019-01-13T18:45:54.695Z,2.58
2019-01-13T18:49:01.517Z,2.37
2019-01-13T18:52:09.479Z,2.17
2019-01-13T18:55:16.331Z,2.35
2019-01-13T18:58:22.956Z,2.40
2019-01-13T19:01:29.926Z,2.02
2019-01-13T19:04:38.388Z,2.22
2019-01-13T19:07:45.601Z,2.10
2019-01-13T19:11:02.118Z,1.80
2019-01-13T19:14:44.818Z,2.22
2019-01-13T19:17:52.798Z,2.20
2019-01-13T19:20:59.003Z,2.30
2019-01-13T19:24:06.671Z,2.02
2019-01-13T19:27:12.875Z,1.65
2019-01-13T19:30:19.919Z,1.77
2019-01-13T19:33:27.064Z,2.08
2019-01-13T19:36:34.099Z,1.67
2019-01-13T19:39:40.654Z,1.82
2019-01-13T19:42:47.226Z,1.67
2019-01-13T19:45:53.793Z,1.70
2019-01-13T19:49:00.710Z,1.45
2019-01-13T19:52:07.660Z,1.65
2019-01-13T19:55:15.852Z,1.45
2019-01-13T19:58:22.832Z,2.08
2019-01-13T20:01:30.376Z,1.62
2019-01-13T20:04:36.954Z,1.95
2019-01-13T20:07:43.639Z,1.65
2019-01-13T20:10:50.343Z,1.30
2019-01-13T20:13:57.338Z,1.47
2019-01-13T20:17:04.459Z,1.30
2019-01-13T20:20:12.130Z,1.10
2019-01-13T20:23:19.898Z,1.37
2019-01-13T20:26:27.112Z,1.55
2019-01-13T20:29:33.506Z,1.27
2019-01-13T20:32:40.122Z,1.12
2019-01-13T20:35:47.221Z,1.50
2019-01-13T20:38:53.555Z,1.42
2019-01-13T20:42:00.494Z,1.20
2019-01-13T20:45:08.908Z,1.25
2019-01-13T20:48:14.663Z,1.10
2019-01-13T20:51:20.311Z,1.10
2019-01-13T20:54:25.950Z,1.20
2019-01-13T20:57:31.618Z,1.17
2019-01-13T21:00:37.751Z,1.20
2019-01-13T21:03:43.441Z,1.20
2019-01-13T21:06:49.194Z,1.10
2019-01-13T21:09:54.818Z,1.17
2019-01-13T21:13:00.580Z,0.90
2019-01-13T21:16:06.257Z,1.22
2019-01-13T21:19:11.915Z,1.37
2019-01-13T21:22:17.535Z,1.30
2019-01-13T21:25:23.190Z,1.10
2019-01-13T21:28:28.962Z,1.07
2019-01-13T21:31:34.622Z,1.27
2019-01-13T21:34:40.250Z,1.00
2019-01-13T21:37:45.927Z,1.00
2019-01-13T21:40:51.575Z,0.80
2019-01-13T21:43:57.341Z,0.90
2019-01-13T21:47:04.558Z,1.20
2019-01-13T21:50:12.520Z,0.75
2019-01-13T21:53:18.298Z,0.70
2019-01-13T21:56:24.014Z,0.90
2019-01-13T21:59:29.778Z,0.70
2019-01-13T22:02:35.435Z,0.93
2019-01-13T22:05:41.500Z,1.00
2019-01-13T22:08:47.158Z,0.88
2019-01-13T22:11:53.138Z,0.80
2019-01-13T22:14:58.776Z,0.80
2019-01-13T22:18:04.646Z,0.90
2019-01-13T22:21:10.393Z,1.00
2019-01-13T22:24:16.155Z,0.95
2019-01-13T22:27:21.794Z,0.90
2019-01-13T22:30:27.565Z,0.85
2019-01-13T22:33:33.178Z,0.82
2019-01-13T22:36:39.202Z,0.95
2019-01-13T22:39:44.899Z,1.00
2019-01-13T22:42:51.263Z,0.68
2019-01-13T22:45:56.918Z,0.78
2019-01-13T22:49:02.682Z,0.90
2019-01-13T22:52:11.010Z,0.98
2019-01-13T22:55:17.102Z,0.80
2019-01-13T22:58:22.712Z,0.90
2019-01-13T23:01:37.386Z,1.00
2019-01-13T23:04:43.047Z,0.88
2019-01-13T23:07:48.675Z,1.00
2019-01-13T23:10:54.526Z,1.00
2019-01-13T23:14:00.312Z,1.00
2019-01-13T23:17:06.067Z,0.90
2019-01-13T23:20:12.030Z,0.98
2019-01-13T23:23:17.674Z,0.80
2019-01-13T23:26:23.406Z,0.93
2019-01-13T23:29:29.066Z,1.00
2019-01-13T23:32:34.741Z,0.80
2019-01-13T23:35:40.394Z,0.80
2019-01-13T23:38:46.020Z,0.75
2019-01-13T23:41:51.793Z,0.68
2019-01-13T23:44:57.530Z,1.05
2019-01-13T23:48:03.207Z,1.00
2019-01-13T23:51:08.859Z,1.17
2019-01-13T23:54:14.516Z,0.90
2019-01-13T23:57:20.142Z,1.10
